MDT,Max TemperatureF,Mean TemperatureF,Min TemperatureF,Max Dew PointF,MeanDew PointF,Min DewpointF,Max Humidity, Mean Humidity, Min Humidity, Max Sea Level PressureIn, Mean Sea Level PressureIn, Min Sea Level PressureIn, Max VisibilityMiles, Mean VisibilityMiles, Min VisibilityMiles, Max Wind SpeedMPH, Mean Wind SpeedMPH, Max Gust SpeedMPH,PrecipitationIn, CloudCover, Events, WindDirDegrees
2011-10-1,86,66,45,45,37,34,65,41,16,29.99,29.86,29.78,10,10,10,30,10,36,T,1,Rain,258
2011-10-2,75,60,44,47,44,42,77,54,31,29.97,29.92,29.84,10,10,10,20,6,24,T,1,,118
2011-10-3,89,64,38,47,40,33,92,53,14,30.01,29.88,29.68,10,10,10,28,9,35,0.00,0,,125
2011-10-4,85,66,47,45,42,37,71,46,20,29.66,29.59,29.49,10,10,10,21,9,31,T,1,,182
2011-10-5,75,61,46,49,44,39,82,59,35,29.61,29.51,29.40,10,10,10,20,8,23,0.00,1,,66
2011-10-6,59,55,50,52,50,48,96,84,72,29.60,29.52,29.40,10,10,10,24,8,30,0.02,8,Rain,289
2011-10-7,54,50,45,50,45,42,93,87,80,30.00,29.64,29.51,10,10,10,28,17,33,0.05,8,Rain,302
2011-10-8,57,48,39,42,36,31,93,65,36,30.29,30.20,30.02,10,10,10,16,6,21,0.00,3,,232
2011-10-9,65,49,33,36,33,26,89,57,24,30.14,29.98,29.85,10,10,10,16,7,23,0.00,0,,196
2011-10-10,67,49,30,38,33,28,96,63,29,29.86,29.73,29.54,10,10,10,20,7,24,0.00,1,,241
2011-10-11,67,57,46,43,37,33,76,54,31,29.77,29.60,29.53,10,10,10,26,15,31,0.01,5,Rain,250
2011-10-12,65,53,41,35,31,25,70,47,23,29.97,29.92,29.78,10,10,10,31,17,38,0.00,1,,244
2011-10-13,57,41,25,33,28,24,85,60,35,30.12,30.04,29.97,10,10,10,26,10,31,T,2,,260
2011-10-14,54,40,25,34,27,22,92,62,32,30.19,30.09,29.96,10,10,10,15,6,18,0.00,3,,253
2011-10-15,55,43,30,39,29,16,86,55,24,30.17,30.00,29.91,10,10,10,23,8,30,T,5,,270
2011-10-16,55,38,20,23,20,17,84,55,26,30.18,30.12,29.98,10,10,10,12,4,14,0.00,0,,75
2011-10-17,57,39,21,29,24,19,96,63,30,30.35,30.27,30.17,10,10,10,20,10,25,0.00,1,,238
2011-10-18,61,45,29,32,27,23,85,56,27,30.43,30.32,30.18,10,10,10,23,9,26,0.00,0,,230
2011-10-19,63,42,20,33,27,18,92,59,25,30.16,29.95,29.81,10,10,9,15,3,18,0.00,0,,133
2011-10-20,67,51,35,37,34,31,70,50,29,30.02,29.91,29.81,10,10,6,24,10,29,0.00,0,,243
2011-10-21,62,46,30,36,32,28,92,61,30,30.17,30.07,29.95,10,10,10,17,7,24,0.00,0,,238
2011-10-22,50,49,48,38,37,36,66,64,61,29.98,29.93,29.92,10,10,10,20,16,28,0.00,0,,226
2011-10-23,,,,,,,,,,,,,,,,,,,,,,
2011-10-24,54,41,28,30,27,24,75,54,32,30.12,30.05,29.94,10,10,10,23,5,30,0.00,6,,289
2011-10-25,51,37,23,28,26,22,92,64,36,30.39,30.29,30.09,10,10,10,21,9,24,0.00,3,,246
2011-10-26,49,35,20,27,20,16,96,92,88,30.39,30.17,29.94,10,10,10,25,13,31,0.00,1,,232
2011-10-27,52,36,19,21,16,8,57,45,33,30.22,30.07,29.91,10,10,10,20,9,25,0.00,3,,256
2011-10-28,55,37,19,20,14,9,77,48,19,30.25,30.05,29.65,10,10,10,28,12,33,0.00,1,,230
2011-10-29,53,41,29,34,23,15,65,45,24,30.11,29.90,29.65,10,10,10,32,14,40,T,3,Rain,265
2011-10-30,64,43,22,34,25,17,81,53,25,30.17,29.97,29.77,10,10,10,29,16,37,0.00,0,,230
2011-10-31,55,44,33,46,35,28,93,70,46,30.10,29.87,29.73,10,10,9,37,11,44,0.09,4,Rain,256